O'Neill, NE

1:29 PM CDT on July 25, 2014 (GMT -0500)
The O'Neill Municipal-Baker (KONL) Elev 2031 ft | 42.47 °N, 98.69 °W | Change Station

Current weather conditions updated 14 minutes ago

Clear
Clear
88 °F
Feels Like 90 °F
N
12
Wind Variable Wind from NNW

Today is forecast to be nearly the same temperature as yesterday.

Today
High -- | Low -- °F
--% Chance of Precip.
Yesterday
High -- | Low -- °F
Precip. -- in
6:19 AM 9:01 PM
Waning Crescent, 1% visible
Pressure 29.82 in
Visibility 10.0 miles
Clouds Clear
Heat Index 90 °F
Dew Point 65 °F
Humidity 46%
Rainfall 0.00 in
Snow Depth Not available.
UV 11 out of 12
Pollen 7.20 out of 12
Air Quality Not available.
Flu Activity Not available.
METAR KONL 251815Z AUTO 34010KT 10SM CLR 31/18 A2982 RMK AO2 T03120182

More Conditions Fewer Conditions

Pressure 29.82 in
Visibility 10.0 miles
Clouds Clear
Heat Index 90 °F
Dew Point 65 °F
Humidity 46%
Rainfall 0.00 in
Snow Depth Not available.
UV 11 out of 12
Pollen 7.20 out of 12
Air Quality Not available.
Flu Activity Not available.
METAR KONL 251815Z AUTO 34010KT 10SM CLR 31/18 A2982 RMK AO2 T03120182

More Conditions Fewer Conditions

10-Day Weather Forecast

Almanac

Astronomy

Jul. 25, 2014 Rise Set
Actual Time 6:19 AM CDT 9:01 PM CDT
Civil Twilight 5:47 AM CDT 9:34 PM CDT
Nautical Twilight 5:06 AM CDT 10:15 PM CDT
Astronomical Twilight 4:19 AM CDT 11:01 PM CDT
Moon 5:21 AM CDT 7:58 PM CDT
Length of Visible Light 15h 46m
Length of Day
14h 41m
Tomorrow will be 1m 57s shorter.
Waning Crescent, 1% of the Moon is Illuminated
Today
Waning Crescent
Jul 26
New
Aug 3
First Quarter
Aug 10
Full
Aug 17
Last Quarter

Today's Extremes

State Highs State Lows

Community

WunderPhotos

Upload Photos

1,737,372 photos uploaded!

Nearby

Snow Depth

Station Depth Elevation
No new snow has been reported.

Earthquake Activity

City Distance Mag. Time & Date
No recent earthquake activity has been reported nearby.
Minimum magnitude displayed is 2.5.

Coastal Water Temperatures

Place Temperature
No Stations Reporting

Nearby Weather Stations

Station Location Temp. Heat Index Dew Point Humidity Wind Precip. Elev Updated Type
50196 US Highway 20, Inman, NE 87.4 °F 93 °F 70 °F 57% WNW  at  2.0 mph 0.00 in / hr 1903 ft 1:28 PM CDT Rapid Fire
105 South Victoria Street, Chambers, NE 89.1 °F 93 °F 69 °F 51% West  at  7.6 mph 0.00 in / hr 2119 ft 1:28 PM CDT Rapid Fire

Show More Stations Show Fewer Stations